createdAt,value
2018-10-17T00:00:27.874Z,10.31
2018-10-17T00:02:56.165Z,10.28
2018-10-17T00:05:24.435Z,10.33
2018-10-17T00:07:53.099Z,10.16
2018-10-17T00:10:21.390Z,10.12
2018-10-17T00:12:50.182Z,10.09
2018-10-17T00:15:18.882Z,10.11
2018-10-17T00:17:47.159Z,10.07
2018-10-17T00:20:15.470Z,10.05
2018-10-17T00:22:43.811Z,10.10
2018-10-17T00:25:12.356Z,10.05
2018-10-17T00:27:40.862Z,10.11
2018-10-17T00:30:11.178Z,10.00
2018-10-17T00:32:40.109Z,9.98
2018-10-17T00:35:09.169Z,9.90
2018-10-17T00:37:37.601Z,9.83
2018-10-17T00:40:06.099Z,9.84
2018-10-17T00:42:34.630Z,9.85
2018-10-17T00:45:03.028Z,9.84
2018-10-17T00:47:31.615Z,9.76
2018-10-17T00:49:59.974Z,9.78
2018-10-17T00:52:28.255Z,9.73
2018-10-17T00:54:56.942Z,9.71
2018-10-17T00:57:25.447Z,9.77
2018-10-17T00:59:53.741Z,9.82
2018-10-17T01:02:22.718Z,9.89
2018-10-17T01:04:51.579Z,9.81
2018-10-17T01:07:20.713Z,9.73
2018-10-17T01:09:49.038Z,9.63
2018-10-17T01:12:17.322Z,9.56
2018-10-17T01:14:45.932Z,9.39
2018-10-17T01:17:14.291Z,9.29
2018-10-17T01:19:42.736Z,9.21
2018-10-17T01:22:11.332Z,9.09
2018-10-17T01:24:39.854Z,9.04
2018-10-17T01:27:08.476Z,9.02
2018-10-17T01:29:36.895Z,9.18
2018-10-17T01:32:05.591Z,9.33
2018-10-17T01:34:34.358Z,9.47
2018-10-17T01:37:02.868Z,9.33
2018-10-17T01:39:32.011Z,9.16
2018-10-17T01:42:00.290Z,8.99
2018-10-17T01:44:28.914Z,8.92
2018-10-17T01:46:57.206Z,8.90
2018-10-17T01:49:25.821Z,8.98
2018-10-17T01:51:54.506Z,9.00
2018-10-17T01:54:23.006Z,9.01
2018-10-17T01:56:51.725Z,9.17
2018-10-17T01:59:20.187Z,9.07
2018-10-17T02:01:48.475Z,8.91
2018-10-17T02:04:16.754Z,8.88
2018-10-17T02:06:45.026Z,8.94
2018-10-17T02:09:13.463Z,8.96
2018-10-17T02:11:41.898Z,8.91
2018-10-17T02:14:10.187Z,8.94
2018-10-17T02:16:38.496Z,8.96
2018-10-17T02:19:07.153Z,8.90
2018-10-17T02:21:35.600Z,8.79
2018-10-17T02:24:04.398Z,8.82
2018-10-17T02:26:32.718Z,8.91
2018-10-17T02:29:01.033Z,8.83
2018-10-17T02:31:29.476Z,8.84
2018-10-17T02:33:57.759Z,8.89
2018-10-17T02:36:26.070Z,8.78
2018-10-17T02:38:54.504Z,8.72
2018-10-17T02:41:22.809Z,8.63
2018-10-17T02:43:51.098Z,8.58
2018-10-17T02:46:19.820Z,8.48
2018-10-17T02:48:48.491Z,8.42
2018-10-17T02:51:16.749Z,8.51
2018-10-17T02:53:45.096Z,8.52
2018-10-17T02:56:13.407Z,8.53
2018-10-17T02:58:41.692Z,8.46
2018-10-17T03:01:10.093Z,8.55
2018-10-17T03:03:39.447Z,8.66
2018-10-17T03:06:07.731Z,8.76
2018-10-17T03:08:36.162Z,8.70
2018-10-17T03:11:05.577Z,8.73
2018-10-17T03:13:34.034Z,8.58
2018-10-17T03:16:03.774Z,8.56
2018-10-17T03:18:32.895Z,8.49
2018-10-17T03:21:01.174Z,8.40
2018-10-17T03:23:29.466Z,8.43
2018-10-17T03:25:57.827Z,8.53
2018-10-17T03:28:26.339Z,8.53
2018-10-17T03:30:54.798Z,8.51
2018-10-17T03:33:23.271Z,8.56
2018-10-17T03:35:51.626Z,8.55
2018-10-17T03:38:20.116Z,8.65
2018-10-17T03:40:48.732Z,8.66
2018-10-17T03:43:17.286Z,8.72
2018-10-17T03:45:46.040Z,8.75
2018-10-17T03:48:14.344Z,8.67
2018-10-17T03:50:42.742Z,8.68
2018-10-17T03:53:11.079Z,8.64
2018-10-17T03:55:39.544Z,8.68
2018-10-17T03:58:07.873Z,8.74
2018-10-17T04:00:36.259Z,9.01
2018-10-17T04:03:05.725Z,9.33
2018-10-17T04:05:34.227Z,9.42
2018-10-17T04:08:02.506Z,9.42
2018-10-17T04:10:30.779Z,9.51
2018-10-17T04:12:59.077Z,9.67
2018-10-17T04:15:27.669Z,9.74
2018-10-17T04:17:56.049Z,9.84
2018-10-17T04:20:24.347Z,9.92
2018-10-17T04:22:55.280Z,9.93
2018-10-17T04:25:23.945Z,9.91
2018-10-17T04:27:53.163Z,9.97
2018-10-17T04:30:21.509Z,10.02
2018-10-17T04:32:49.842Z,10.00
2018-10-17T04:35:18.719Z,9.98
2018-10-17T04:37:47.754Z,9.97
2018-10-17T04:40:16.070Z,10.00
2018-10-17T04:42:44.490Z,9.87
2018-10-17T04:45:12.892Z,9.79
2018-10-17T04:47:41.248Z,9.86
2018-10-17T04:50:12.032Z,9.88
2018-10-17T04:52:40.718Z,9.79
2018-10-17T04:55:10.218Z,9.71
2018-10-17T04:57:38.702Z,9.65
2018-10-17T05:00:10.491Z,9.61
2018-10-17T05:02:39.363Z,9.78
2018-10-17T05:05:08.118Z,9.90
2018-10-17T05:07:36.585Z,9.94
2018-10-17T05:10:05.165Z,9.90
2018-10-17T05:12:33.812Z,9.82
2018-10-17T05:15:02.105Z,9.72
2018-10-17T05:17:30.665Z,9.65
2018-10-17T05:19:59.431Z,9.60
2018-10-17T05:22:27.744Z,9.59
2018-10-17T05:24:56.104Z,9.70
2018-10-17T05:27:24.619Z,9.72
2018-10-17T05:29:53.081Z,9.79
2018-10-17T05:32:21.458Z,10.19
2018-10-17T05:34:49.884Z,10.22
2018-10-17T05:37:18.631Z,10.27
2018-10-17T05:39:47.095Z,10.25
2018-10-17T05:42:15.431Z,10.27
2018-10-17T05:44:44.049Z,10.35
2018-10-17T05:47:12.627Z,10.45
2018-10-17T05:49:41.248Z,10.50
2018-10-17T05:52:09.660Z,10.50
2018-10-17T05:54:37.978Z,10.61
2018-10-17T05:57:06.359Z,10.65
2018-10-17T05:59:34.655Z,10.67
2018-10-17T06:02:07.763Z,10.60
2018-10-17T06:04:36.247Z,10.52
2018-10-17T06:07:04.772Z,10.50
2018-10-17T06:09:33.208Z,10.54
2018-10-17T06:12:01.635Z,10.44
2018-10-17T06:14:30.015Z,10.40
2018-10-17T06:16:58.430Z,10.45
2018-10-17T06:19:26.874Z,10.52
2018-10-17T06:21:55.182Z,11.03
2018-10-17T06:24:23.570Z,11.89
2018-10-17T06:26:51.923Z,13.04
2018-10-17T06:29:20.332Z,14.16
2018-10-17T06:31:48.662Z,15.18
2018-10-17T06:34:17.108Z,16.08
2018-10-17T06:36:45.669Z,16.74
2018-10-17T06:39:13.958Z,17.04
2018-10-17T06:41:42.323Z,17.68
2018-10-17T06:44:10.882Z,18.52
2018-10-17T06:46:39.307Z,19.64
2018-10-17T06:49:08.096Z,20.52
2018-10-17T06:51:36.544Z,21.23
2018-10-17T06:54:05.129Z,21.58
2018-10-17T06:56:33.998Z,21.68
2018-10-17T06:59:02.494Z,21.43
2018-10-17T07:01:31.018Z,21.38
2018-10-17T07:04:00.074Z,21.40
2018-10-17T07:06:28.383Z,21.90
2018-10-17T07:08:56.702Z,22.24
2018-10-17T07:11:24.983Z,22.71
2018-10-17T07:13:53.542Z,22.78
2018-10-17T07:16:22.303Z,22.83
2018-10-17T07:18:50.602Z,23.10
2018-10-17T07:21:18.952Z,23.65
2018-10-17T07:23:47.258Z,24.13
2018-10-17T07:26:15.608Z,24.42
2018-10-17T07:28:44.056Z,24.60
2018-10-17T07:31:12.610Z,24.64
2018-10-17T07:33:41.172Z,24.94
2018-10-17T07:36:09.511Z,24.80
2018-10-17T07:38:37.999Z,24.43
2018-10-17T07:41:06.756Z,23.92
2018-10-17T07:43:35.074Z,23.83
2018-10-17T07:46:03.454Z,23.34
2018-10-17T07:48:31.734Z,23.17
2018-10-17T07:51:00.347Z,23.62
2018-10-17T07:53:28.682Z,24.22
2018-10-17T07:55:57.170Z,24.66
2018-10-17T07:58:25.518Z,25.34
2018-10-17T08:00:54.179Z,26.09
2018-10-17T08:03:22.875Z,26.53
2018-10-17T08:05:51.995Z,25.99
2018-10-17T08:08:20.321Z,25.49
2018-10-17T08:10:48.663Z,24.94
2018-10-17T08:13:16.968Z,24.28
2018-10-17T08:15:45.443Z,23.42
2018-10-17T08:18:14.212Z,22.80
2018-10-17T08:20:42.663Z,22.06
2018-10-17T08:23:10.982Z,21.67
2018-10-17T08:25:39.288Z,21.44
2018-10-17T08:28:07.610Z,21.25
2018-10-17T08:30:36.030Z,21.12
2018-10-17T08:33:04.488Z,20.94
2018-10-17T08:35:32.906Z,20.64
2018-10-17T08:38:01.636Z,20.49
2018-10-17T08:40:30.154Z,20.67
2018-10-17T08:42:58.557Z,21.05
2018-10-17T08:45:26.982Z,21.38
2018-10-17T08:47:55.410Z,21.65
2018-10-17T08:50:23.722Z,21.75
2018-10-17T08:52:52.003Z,21.64
2018-10-17T08:55:20.346Z,21.62
2018-10-17T08:57:48.674Z,21.45
2018-10-17T09:00:17.529Z,21.13
2018-10-17T09:02:46.279Z,20.99
2018-10-17T09:05:14.694Z,21.06
2018-10-17T09:07:43.079Z,21.10
2018-10-17T09:10:11.952Z,21.30
2018-10-17T09:12:40.281Z,21.37
2018-10-17T09:15:08.779Z,21.49
2018-10-17T09:17:37.246Z,21.32
2018-10-17T09:20:07.853Z,21.24
2018-10-17T09:22:36.207Z,21.40
2018-10-17T09:25:05.155Z,21.54
2018-10-17T09:27:33.804Z,21.70
2018-10-17T09:30:02.175Z,21.96
2018-10-17T09:32:30.663Z,21.98
2018-10-17T09:34:59.107Z,21.87
2018-10-17T09:37:27.711Z,21.64
2018-10-17T09:39:56.105Z,21.42
2018-10-17T09:42:24.578Z,21.31
2018-10-17T09:44:53.182Z,21.12
2018-10-17T09:47:21.483Z,20.98
2018-10-17T09:49:50.147Z,20.94
2018-10-17T09:52:18.670Z,21.06
2018-10-17T09:54:47.077Z,21.07
2018-10-17T09:57:15.362Z,21.24
2018-10-17T09:59:43.688Z,21.22
2018-10-17T10:02:12.034Z,21.07
2018-10-17T10:04:40.551Z,21.09
2018-10-17T10:07:08.999Z,21.10
2018-10-17T10:12:05.190Z,21.29
2018-10-17T10:14:33.684Z,21.42
2018-10-17T10:17:02.089Z,21.46
2018-10-17T10:19:30.542Z,21.47
2018-10-17T10:21:58.981Z,21.60
2018-10-17T10:24:27.524Z,21.49
2018-10-17T10:26:56.253Z,21.18
2018-10-17T10:29:31.360Z,21.01
2018-10-17T10:31:59.958Z,20.98
2018-10-17T10:34:28.298Z,20.82
2018-10-17T10:36:56.594Z,20.82
2018-10-17T10:39:24.907Z,20.86
2018-10-17T10:41:53.219Z,20.97
2018-10-17T10:44:21.734Z,21.03
2018-10-17T10:46:50.076Z,20.98
2018-10-17T10:49:18.557Z,21.05
2018-10-17T10:51:47.025Z,21.21
2018-10-17T10:54:15.493Z,21.37
2018-10-17T10:56:43.890Z,21.29
2018-10-17T10:59:12.189Z,21.31
2018-10-17T11:01:41.072Z,21.32
2018-10-17T11:04:09.447Z,21.25
2018-10-17T11:06:37.870Z,21.34
2018-10-17T11:09:07.576Z,21.37
2018-10-17T11:11:36.608Z,21.37
2018-10-17T11:14:05.111Z,21.35
2018-10-17T11:16:33.462Z,21.47
2018-10-17T11:19:02.393Z,21.53
2018-10-17T11:21:31.274Z,21.57
2018-10-17T11:23:59.726Z,21.44
2018-10-17T11:26:28.739Z,21.43
2018-10-17T11:28:57.687Z,21.34
2018-10-17T11:31:26.235Z,21.25
2018-10-17T11:33:55.291Z,21.12
2018-10-17T11:36:23.590Z,21.09
2018-10-17T11:38:52.161Z,21.10
2018-10-17T11:41:20.944Z,21.24
2018-10-17T11:43:50.130Z,21.34
2018-10-17T11:46:18.485Z,21.44
2018-10-17T11:48:47.418Z,21.54
2018-10-17T11:51:16.460Z,21.64
2018-10-17T11:53:44.955Z,21.68
2018-10-17T11:56:13.306Z,21.67
2018-10-17T11:58:42.294Z,21.71
2018-10-17T12:01:11.266Z,21.76
2018-10-17T12:03:39.678Z,21.81
2018-10-17T12:06:08.747Z,21.86
2018-10-17T12:08:37.728Z,21.91
2018-10-17T12:11:06.277Z,21.92
2018-10-17T12:13:35.276Z,21.93
2018-10-17T12:16:03.610Z,21.90
2018-10-17T12:18:32.235Z,21.95
2018-10-17T12:21:00.731Z,22.05
2018-10-17T12:23:29.099Z,22.08
2018-10-17T12:25:58.065Z,22.02
2018-10-17T12:28:27.085Z,22.04
2018-10-17T12:30:55.493Z,22.07
2018-10-17T12:33:24.439Z,22.10
2018-10-17T12:35:53.436Z,22.03
2018-10-17T12:38:21.803Z,22.04
2018-10-17T12:40:50.603Z,22.03
2018-10-17T12:43:19.504Z,22.08
2018-10-17T12:45:48.436Z,22.12
2018-10-17T12:48:17.234Z,22.12
2018-10-17T12:50:46.735Z,22.06
2018-10-17T12:53:15.599Z,22.08
2018-10-17T12:55:44.866Z,22.09
2018-10-17T12:58:13.258Z,22.09
2018-10-17T13:00:41.722Z,22.18
2018-10-17T13:03:10.046Z,22.20
2018-10-17T13:05:38.334Z,22.17
2018-10-17T13:08:07.580Z,22.17
2018-10-17T13:10:36.238Z,22.15
2018-10-17T13:13:05.538Z,22.19
2018-10-17T13:15:34.350Z,22.11
2018-10-17T13:18:03.223Z,22.10
2018-10-17T13:20:31.518Z,22.10
2018-10-17T13:22:59.837Z,22.11
2018-10-17T13:25:28.293Z,22.13
2018-10-17T13:27:57.178Z,22.21
2018-10-17T13:30:26.053Z,22.22
2018-10-17T13:32:54.425Z,22.16
2018-10-17T13:35:22.772Z,22.18
2018-10-17T13:37:51.634Z,22.21
2018-10-17T13:40:19.924Z,22.23
2018-10-17T13:42:48.250Z,22.25
2018-10-17T13:45:16.535Z,22.21
2018-10-17T13:47:44.953Z,22.18
2018-10-17T13:50:13.861Z,22.12
2018-10-17T13:52:42.166Z,22.01
2018-10-17T13:55:11.075Z,21.94
2018-10-17T13:57:40.186Z,21.92
2018-10-17T14:00:10.889Z,21.88
2018-10-17T14:02:40.079Z,21.83
2018-10-17T14:05:08.683Z,21.81
2018-10-17T14:07:36.976Z,21.76
2018-10-17T14:10:05.455Z,21.71
2018-10-17T14:12:34.476Z,21.63
2018-10-17T14:15:03.236Z,21.61
2018-10-17T14:17:31.738Z,21.58
2018-10-17T14:20:00.863Z,21.52
2018-10-17T14:22:29.234Z,21.46
2018-10-17T14:24:57.641Z,21.44
2018-10-17T14:27:26.139Z,21.42
2018-10-17T14:29:58.439Z,21.37
2018-10-17T14:32:27.085Z,21.29
2018-10-17T14:34:55.433Z,21.23
2018-10-17T14:37:23.731Z,21.16
2018-10-17T14:39:52.212Z,21.11
2018-10-17T14:42:20.602Z,21.07
2018-10-17T14:44:49.046Z,21.01
2018-10-17T14:47:17.375Z,20.95
2018-10-17T14:49:45.900Z,20.87
2018-10-17T14:52:14.187Z,20.79
2018-10-17T14:54:42.507Z,20.73
2018-10-17T14:57:10.831Z,20.66
2018-10-17T14:59:39.146Z,20.57
2018-10-17T15:02:07.582Z,20.51
2018-10-17T15:04:35.928Z,20.48
2018-10-17T15:07:04.250Z,20.38
2018-10-17T15:09:32.566Z,20.33
2018-10-17T15:12:00.918Z,20.25
2018-10-17T15:14:29.307Z,20.19
2018-10-17T15:16:58.083Z,20.14
2018-10-17T15:19:26.663Z,20.07
2018-10-17T15:21:54.949Z,19.99
2018-10-17T15:24:23.230Z,19.88
2018-10-17T15:43:27.509Z,19.55
2018-10-17T15:48:53.779Z,19.34
2018-10-17T15:51:22.461Z,19.21
2018-10-17T15:53:51.244Z,19.11
2018-10-17T15:56:21.333Z,18.96
2018-10-17T15:58:50.989Z,18.86
2018-10-17T16:01:19.661Z,18.81
2018-10-17T16:03:48.879Z,18.77
2018-10-17T16:06:17.797Z,18.71
2018-10-17T16:08:53.118Z,18.63
2018-10-17T16:11:21.942Z,18.52
2018-10-17T16:13:50.913Z,18.38
2018-10-17T16:16:19.571Z,18.29
2018-10-17T16:18:48.215Z,18.17
2018-10-17T16:21:17.205Z,18.08
2018-10-17T16:23:45.922Z,18.00
2018-10-17T16:26:15.646Z,17.92
2018-10-17T16:28:45.026Z,17.85
2018-10-17T16:31:13.888Z,17.77
2018-10-17T16:33:42.696Z,17.74
2018-10-17T16:36:11.638Z,17.70
2018-10-17T16:38:40.600Z,17.66
2018-10-17T16:41:09.559Z,17.62
2018-10-17T16:43:39.942Z,17.60
2018-10-17T16:46:09.011Z,17.55
2018-10-17T16:48:37.722Z,17.48
2018-10-17T16:51:06.747Z,17.43
2018-10-17T16:53:35.554Z,17.38
2018-10-17T16:56:04.329Z,17.34
2018-10-17T16:58:33.098Z,17.26
2018-10-17T17:01:02.268Z,17.19
2018-10-17T17:03:31.027Z,17.09
2018-10-17T17:05:59.761Z,16.98
2018-10-17T17:08:28.438Z,16.92
2018-10-17T17:10:57.129Z,16.82
2018-10-17T17:13:25.822Z,16.80
2018-10-17T17:15:54.535Z,16.76
2018-10-17T17:18:23.275Z,16.69
2018-10-17T17:20:52.215Z,16.61
2018-10-17T17:23:21.222Z,16.50
2018-10-17T17:25:49.988Z,16.43
2018-10-17T17:28:18.659Z,16.42
2018-10-17T17:30:48.063Z,16.36
2018-10-17T17:33:16.765Z,16.22
2018-10-17T17:35:45.570Z,16.14
2018-10-17T17:38:14.313Z,16.09
2018-10-17T17:40:42.973Z,15.95
2018-10-17T17:43:11.790Z,15.91
2018-10-17T17:45:40.519Z,15.84
2018-10-17T17:48:09.217Z,15.77
2018-10-17T17:50:37.944Z,15.73
2018-10-17T17:53:06.586Z,15.69
2018-10-17T17:55:35.302Z,15.58
2018-10-17T17:58:04.136Z,15.52
2018-10-17T18:00:33.171Z,15.42
2018-10-17T18:03:02.002Z,15.41
2018-10-17T18:05:30.651Z,15.36
2018-10-17T18:07:59.308Z,15.27
2018-10-17T18:10:27.987Z,15.17
2018-10-17T18:12:56.630Z,15.11
2018-10-17T18:15:25.350Z,15.10
2018-10-17T18:17:54.103Z,15.04
2018-10-17T18:20:22.904Z,14.94
2018-10-17T18:22:51.570Z,14.93
2018-10-17T18:25:20.230Z,14.85
2018-10-17T18:27:49.446Z,14.82
2018-10-17T18:30:18.123Z,14.76
2018-10-17T18:32:46.779Z,14.77
2018-10-17T18:35:15.607Z,14.69
2018-10-17T18:37:44.368Z,14.58
2018-10-17T18:40:13.280Z,14.57
2018-10-17T18:42:42.211Z,14.52
2018-10-17T18:45:11.966Z,14.40
2018-10-17T18:47:40.877Z,14.32
2018-10-17T18:50:09.821Z,14.27
2018-10-17T18:52:38.939Z,14.22
2018-10-17T18:55:08.202Z,14.17
2018-10-17T18:57:37.004Z,14.13
2018-10-17T19:00:07.963Z,13.98
2018-10-17T19:02:36.674Z,13.94
2018-10-17T19:05:05.516Z,13.94
2018-10-17T19:07:34.187Z,13.73
2018-10-17T19:10:02.902Z,13.66
2018-10-17T19:12:31.616Z,13.56
2018-10-17T19:15:00.671Z,13.45
2018-10-17T19:17:29.538Z,13.36
2018-10-17T19:19:58.206Z,13.26
2018-10-17T19:22:29.121Z,13.26
2018-10-17T19:24:57.810Z,13.23
2018-10-17T19:27:27.120Z,13.18
2018-10-17T19:29:55.908Z,13.13
2018-10-17T19:32:25.142Z,13.08
2018-10-17T19:34:53.878Z,13.01
2018-10-17T19:37:22.729Z,12.91
2018-10-17T19:39:51.407Z,12.83
2018-10-17T19:42:20.098Z,12.88
2018-10-17T19:44:48.896Z,12.93
2018-10-17T19:47:17.752Z,12.84
2018-10-17T19:49:46.607Z,12.77
2018-10-17T19:52:15.451Z,12.76
2018-10-17T19:54:44.147Z,12.71
2018-10-17T19:57:13.010Z,12.61
2018-10-17T19:59:42.093Z,12.59
2018-10-17T20:02:10.927Z,12.63
2018-10-17T20:04:39.819Z,12.55
2018-10-17T20:07:08.828Z,12.52
2018-10-17T20:09:37.646Z,12.48
2018-10-17T20:12:07.782Z,12.43
2018-10-17T20:14:36.554Z,12.34
2018-10-17T20:17:06.187Z,12.32
2018-10-17T20:19:34.934Z,12.29
2018-10-17T20:22:03.723Z,12.33
2018-10-17T20:24:32.558Z,12.40
2018-10-17T20:27:03.465Z,12.35
2018-10-17T20:29:32.479Z,12.29
2018-10-17T20:32:01.362Z,12.31
2018-10-17T20:34:30.215Z,12.30
2018-10-17T20:36:59.117Z,12.26
2018-10-17T20:39:28.032Z,12.14
2018-10-17T20:41:56.905Z,12.17
2018-10-17T20:44:25.841Z,12.11
2018-10-17T20:46:54.653Z,11.99
2018-10-17T20:49:23.460Z,11.87
2018-10-17T20:51:52.193Z,11.76
